sensor_id;sensor_type;location;lat;lon;timestamp;pressure;altitude;pressure_sealevel;temperature;humidity
20368;BME280;10343;52.402;9.796;2023-02-21T00:02:45;101011.78;;;14.90;88.94
20368;BME280;10343;52.402;9.796;2023-02-21T00:05:30;101009.22;;;14.35;93.05
20368;BME280;10343;52.402;9.796;2023-02-21T00:08:16;101018.22;;;14.58;92.77
20368;BME280;10343;52.402;9.796;2023-02-21T00:11:03;101005.34;;;14.71;92.99
20368;BME280;10343;52.402;9.796;2023-02-21T00:13:49;101005.34;;;14.44;92.16
20368;BME280;10343;52.402;9.796;2023-02-21T00:16:35;101008.13;;;14.41;93.35
20368;BME280;10343;52.402;9.796;2023-02-21T00:19:21;101010.59;;;13.92;96.61
20368;BME280;10343;52.402;9.796;2023-02-21T00:22:06;101012.50;;;14.42;95.02
20368;BME280;10343;52.402;9.796;2023-02-21T00:24:52;101006.94;;;14.23;93.63
20368;BME280;10343;52.402;9.796;2023-02-21T00:27:39;101007.91;;;14.47;92.76
20368;BME280;10343;52.402;9.796;2023-02-21T00:30:24;100999.16;;;14.43;92.75
20368;BME280;10343;52.402;9.796;2023-02-21T00:33:10;101002.09;;;14.61;91.12
20368;BME280;10343;52.402;9.796;2023-02-21T00:35:56;101001.38;;;14.56;92.41
20368;BME280;10343;52.402;9.796;2023-02-21T00:38:42;101001.78;;;14.95;89.15
20368;BME280;10343;52.402;9.796;2023-02-21T00:41:27;100983.44;;;14.07;98.10
20368;BME280;10343;52.402;9.796;2023-02-21T00:44:14;100996.50;;;14.94;93.87
20368;BME280;10343;52.402;9.796;2023-02-21T00:47:00;101001.28;;;14.59;94.16
20368;BME280;10343;52.402;9.796;2023-02-21T00:49:46;100990.41;;;14.65;95.45
20368;BME280;10343;52.402;9.796;2023-02-21T00:52:31;100996.75;;;14.88;94.74
20368;BME280;10343;52.402;9.796;2023-02-21T00:55:16;100995.13;;;14.57;94.48
20368;BME280;10343;52.402;9.796;2023-02-21T00:58:02;100996.69;;;14.37;96.41
20368;BME280;10343;52.402;9.796;2023-02-21T01:00:49;100991.72;;;13.41;100.00
20368;BME280;10343;52.402;9.796;2023-02-21T01:03:35;100997.38;;;14.16;99.31
20368;BME280;10343;52.402;9.796;2023-02-21T01:06:20;100992.97;;;14.68;93.25
20368;BME280;10343;52.402;9.796;2023-02-21T01:09:06;100990.53;;;14.08;96.94
20368;BME280;10343;52.402;9.796;2023-02-21T01:11:51;100996.47;;;14.17;95.20
20368;BME280;10343;52.402;9.796;2023-02-21T01:14:37;101005.25;;;14.74;91.51
20368;BME280;10343;52.402;9.796;2023-02-21T01:17:26;101001.91;;;14.67;90.89
20368;BME280;10343;52.402;9.796;2023-02-21T01:20:12;101000.88;;;14.71;91.20
20368;BME280;10343;52.402;9.796;2023-02-21T01:22:57;101001.56;;;14.76;91.14
20368;BME280;10343;52.402;9.796;2023-02-21T01:25:43;101009.72;;;14.47;91.30
20368;BME280;10343;52.402;9.796;2023-02-21T01:28:29;101001.63;;;15.00;87.33
20368;BME280;10343;52.402;9.796;2023-02-21T01:31:16;101006.09;;;14.74;89.12
20368;BME280;10343;52.402;9.796;2023-02-21T01:34:03;100991.84;;;14.75;87.75
20368;BME280;10343;52.402;9.796;2023-02-21T01:36:49;101003.28;;;14.52;91.11
20368;BME280;10343;52.402;9.796;2023-02-21T01:39:36;101018.63;;;14.72;89.26
20368;BME280;10343;52.402;9.796;2023-02-21T01:42:23;101004.03;;;14.83;88.41
20368;BME280;10343;52.402;9.796;2023-02-21T01:45:39;101010.03;;;14.89;87.78
20368;BME280;10343;52.402;9.796;2023-02-21T01:48:25;101014.16;;;14.98;86.98
20368;BME280;10343;52.402;9.796;2023-02-21T01:51:17;101011.00;;;14.87;87.66
20368;BME280;10343;52.402;9.796;2023-02-21T01:54:05;101014.22;;;14.44;90.67
20368;BME280;10343;52.402;9.796;2023-02-21T01:56:51;101007.41;;;14.88;87.89
20368;BME280;10343;52.402;9.796;2023-02-21T01:59:38;101001.09;;;14.65;87.41
20368;BME280;10343;52.402;9.796;2023-02-21T02:02:28;101006.00;;;14.77;88.34
20368;BME280;10343;52.402;9.796;2023-02-21T02:05:16;101005.47;;;15.40;83.55
20368;BME280;10343;52.402;9.796;2023-02-21T02:08:04;101009.59;;;15.02;85.27
20368;BME280;10343;52.402;9.796;2023-02-21T02:10:55;101002.16;;;15.10;85.07
20368;BME280;10343;52.402;9.796;2023-02-21T02:13:56;101012.69;;;14.37;86.45
20368;BME280;10343;52.402;9.796;2023-02-21T02:16:33;101028.47;;;15.21;85.16
20368;BME280;10343;52.402;9.796;2023-02-21T02:25:17;101008.09;;;14.93;87.05
20368;BME280;10343;52.402;9.796;2023-02-21T02:28:09;101010.88;;;14.90;88.14
20368;BME280;10343;52.402;9.796;2023-02-21T02:31:07;101018.78;;;15.18;86.91
20368;BME280;10343;52.402;9.796;2023-02-21T02:36:38;101004.91;;;14.83;91.02
20368;BME280;10343;52.402;9.796;2023-02-21T02:39:18;101010.94;;;14.36;94.17
20368;BME280;10343;52.402;9.796;2023-02-21T02:41:54;101008.72;;;14.76;92.30
20368;BME280;10343;52.402;9.796;2023-02-21T02:44:30;101007.31;;;14.91;91.70
20368;BME280;10343;52.402;9.796;2023-02-21T02:47:04;101010.31;;;15.05;91.91
20368;BME280;10343;52.402;9.796;2023-02-21T02:49:37;101002.25;;;14.30;97.12
20368;BME280;10343;52.402;9.796;2023-02-21T02:52:09;101006.47;;;14.10;97.37
20368;BME280;10343;52.402;9.796;2023-02-21T02:54:37;101009.91;;;14.40;96.90
20368;BME280;10343;52.402;9.796;2023-02-21T02:57:08;101013.28;;;14.46;96.56
20368;BME280;10343;52.402;9.796;2023-02-21T02:59:44;101019.13;;;14.57;95.12
20368;BME280;10343;52.402;9.796;2023-02-21T03:02:24;101018.41;;;14.52;96.24
20368;BME280;10343;52.402;9.796;2023-02-21T03:05:21;101003.47;;;14.48;96.35
20368;BME280;10343;52.402;9.796;2023-02-21T03:07:59;101017.38;;;14.56;97.43
20368;BME280;10343;52.402;9.796;2023-02-21T03:10:37;101004.31;;;14.21;96.44
20368;BME280;10343;52.402;9.796;2023-02-21T03:13:12;101018.31;;;14.28;97.55
20368;BME280;10343;52.402;9.796;2023-02-21T03:15:47;101005.34;;;14.44;95.21
20368;BME280;10343;52.402;9.796;2023-02-21T03:18:23;101000.22;;;14.11;98.78
20368;BME280;10343;52.402;9.796;2023-02-21T03:20:57;101000.78;;;14.48;98.96
20368;BME280;10343;52.402;9.796;2023-02-21T03:23:30;100994.00;;;14.64;95.41
20368;BME280;10343;52.402;9.796;2023-02-21T03:26:03;100991.69;;;14.53;98.11
20368;BME280;10343;52.402;9.796;2023-02-21T03:28:36;100988.97;;;14.28;97.73
20368;BME280;10343;52.402;9.796;2023-02-21T03:31:07;100988.09;;;14.81;96.21
20368;BME280;10343;52.402;9.796;2023-02-21T03:33:36;100991.00;;;14.73;95.01
20368;BME280;10343;52.402;9.796;2023-02-21T03:36:07;101000.38;;;14.58;96.21
20368;BME280;10343;52.402;9.796;2023-02-21T03:38:37;100998.75;;;14.81;95.48
20368;BME280;10343;52.402;9.796;2023-02-21T03:41:10;100991.84;;;14.75;95.67
20368;BME280;10343;52.402;9.796;2023-02-21T03:43:40;100980.91;;;14.56;96.56
20368;BME280;10343;52.402;9.796;2023-02-21T03:46:10;100984.91;;;14.18;98.62
20368;BME280;10343;52.402;9.796;2023-02-21T03:48:38;100984.16;;;14.66;96.49
20368;BME280;10343;52.402;9.796;2023-02-21T03:51:15;100983.34;;;14.37;96.91
20368;BME280;10343;52.402;9.796;2023-02-21T03:53:45;100990.13;;;14.98;93.44
20368;BME280;10343;52.402;9.796;2023-02-21T03:56:17;100991.34;;;14.64;95.19
20368;BME280;10343;52.402;9.796;2023-02-21T03:59:05;100988.81;;;14.85;92.70
20368;BME280;10343;52.402;9.796;2023-02-21T04:01:34;100984.97;;;14.41;96.28
20368;BME280;10343;52.402;9.796;2023-02-21T04:04:02;100980.81;;;14.06;100.00
20368;BME280;10343;52.402;9.796;2023-02-21T04:06:30;100982.72;;;14.29;99.14
20368;BME280;10343;52.402;9.796;2023-02-21T04:09:00;100980.38;;;14.47;97.48
20368;BME280;10343;52.402;9.796;2023-02-21T04:11:30;100980.63;;;14.66;94.34
20368;BME280;10343;52.402;9.796;2023-02-21T04:13:58;100984.00;;;14.17;95.61
20368;BME280;10343;52.402;9.796;2023-02-21T04:16:26;100977.28;;;14.32;97.65
20368;BME280;10343;52.402;9.796;2023-02-21T04:18:55;100978.19;;;14.33;97.60
20368;BME280;10343;52.402;9.796;2023-02-21T04:21:24;100968.16;;;14.66;94.73
20368;BME280;10343;52.402;9.796;2023-02-21T04:23:54;100969.06;;;14.65;93.96
20368;BME280;10343;52.402;9.796;2023-02-21T04:26:28;100965.09;;;14.50;94.44
20368;BME280;10343;52.402;9.796;2023-02-21T04:28:56;100961.91;;;14.67;93.44
20368;BME280;10343;52.402;9.796;2023-02-21T04:31:24;100975.03;;;14.97;92.15
20368;BME280;10343;52.402;9.796;2023-02-21T04:33:52;100965.03;;;14.53;93.85
20368;BME280;10343;52.402;9.796;2023-02-21T04:36:37;100965.94;;;14.25;97.57
20368;BME280;10343;52.402;9.796;2023-02-21T04:39:06;100968.88;;;14.71;93.59
20368;BME280;10343;52.402;9.796;2023-02-21T04:41:36;100972.19;;;14.51;93.47
20368;BME280;10343;52.402;9.796;2023-02-21T04:44:04;100973.94;;;14.27;96.76
20368;BME280;10343;52.402;9.796;2023-02-21T04:46:33;100969.94;;;14.91;90.56
20368;BME280;10343;52.402;9.796;2023-02-21T04:49:01;100976.56;;;15.04;89.37
20368;BME280;10343;52.402;9.796;2023-02-21T04:51:29;100964.25;;;15.00;88.18
20368;BME280;10343;52.402;9.796;2023-02-21T04:53:57;100961.06;;;14.65;91.02
20368;BME280;10343;52.402;9.796;2023-02-21T04:56:25;100969.34;;;15.06;89.07
20368;BME280;10343;52.402;9.796;2023-02-21T04:58:57;100957.63;;;14.61;91.60
20368;BME280;10343;52.402;9.796;2023-02-21T05:01:26;100959.81;;;14.75;90.45
20368;BME280;10343;52.402;9.796;2023-02-21T05:03:56;100958.91;;;15.00;89.04
20368;BME280;10343;52.402;9.796;2023-02-21T05:06:26;100954.69;;;14.94;88.77
20368;BME280;10343;52.402;9.796;2023-02-21T05:08:54;100960.88;;;14.95;88.26
20368;BME280;10343;52.402;9.796;2023-02-21T05:11:23;100956.91;;;14.82;88.29
20368;BME280;10343;52.402;9.796;2023-02-21T05:13:51;100962.19;;;14.58;90.54
20368;BME280;10343;52.402;9.796;2023-02-21T05:16:20;100942.97;;;14.48;90.61
20368;BME280;10343;52.402;9.796;2023-02-21T05:18:49;100965.88;;;15.04;87.65
20368;BME280;10343;52.402;9.796;2023-02-21T05:21:18;100981.06;;;14.78;87.02
20368;BME280;10343;52.402;9.796;2023-02-21T05:23:46;100977.41;;;14.81;88.28
20368;BME280;10343;52.402;9.796;2023-02-21T05:26:24;100973.41;;;14.93;87.08
20368;BME280;10343;52.402;9.796;2023-02-21T05:28:52;100969.94;;;15.15;85.79
20368;BME280;10343;52.402;9.796;2023-02-21T05:31:22;100976.88;;;14.71;90.36
20368;BME280;10343;52.402;9.796;2023-02-21T05:33:50;100967.88;;;14.74;88.49
20368;BME280;10343;52.402;9.796;2023-02-21T05:36:18;100977.47;;;14.80;87.94
20368;BME280;10343;52.402;9.796;2023-02-21T05:38:48;100979.63;;;14.68;89.04
20368;BME280;10343;52.402;9.796;2023-02-21T05:41:17;100983.00;;;14.73;89.87
20368;BME280;10343;52.402;9.796;2023-02-21T05:43:46;100974.56;;;14.86;88.24
20368;BME280;10343;52.402;9.796;2023-02-21T05:46:19;100975.84;;;14.75;88.58
20368;BME280;10343;52.402;9.796;2023-02-21T05:48:50;100965.28;;;14.46;91.61
20368;BME280;10343;52.402;9.796;2023-02-21T05:51:19;100987.38;;;14.76;90.33
20368;BME280;10343;52.402;9.796;2023-02-21T05:53:47;100976.91;;;14.95;89.36
20368;BME280;10343;52.402;9.796;2023-02-21T05:56:15;100978.16;;;14.85;88.70
20368;BME280;10343;52.402;9.796;2023-02-21T05:58:43;100963.69;;;14.40;91.74
20368;BME280;10343;52.402;9.796;2023-02-21T06:01:12;100972.94;;;15.05;88.36
20368;BME280;10343;52.402;9.796;2023-02-21T06:03:40;100983.31;;;14.64;89.69
20368;BME280;10343;52.402;9.796;2023-02-21T06:06:10;100985.72;;;14.72;89.19
20368;BME280;10343;52.402;9.796;2023-02-21T06:08:42;100991.50;;;14.85;90.96
20368;BME280;10343;52.402;9.796;2023-02-21T06:11:11;100979.81;;;14.62;90.61
20368;BME280;10343;52.402;9.796;2023-02-21T06:13:40;100991.84;;;14.75;90.95
20368;BME280;10343;52.402;9.796;2023-02-21T06:16:08;100988.47;;;14.43;94.54
20368;BME280;10343;52.402;9.796;2023-02-21T06:18:36;100990.72;;;15.06;89.29
20368;BME280;10343;52.402;9.796;2023-02-21T06:21:04;100986.88;;;14.90;89.64
20368;BME280;10343;52.402;9.796;2023-02-21T06:23:34;100984.19;;;14.38;94.88
20368;BME280;10343;52.402;9.796;2023-02-21T06:26:02;100976.31;;;14.60;91.13
20368;BME280;10343;52.402;9.796;2023-02-21T06:28:30;100986.88;;;14.90;90.59
20368;BME280;10343;52.402;9.796;2023-02-21T06:30:58;100990.88;;;14.78;91.51
20368;BME280;10343;52.402;9.796;2023-02-21T06:33:26;100990.28;;;14.68;90.41
20368;BME280;10343;52.402;9.796;2023-02-21T06:35:54;100991.00;;;14.99;88.13
20368;BME280;10343;52.402;9.796;2023-02-21T06:38:23;101006.50;;;14.62;88.60
20368;BME280;10343;52.402;9.796;2023-02-21T06:40:52;100999.34;;;14.89;89.15
20368;BME280;10343;52.402;9.796;2023-02-21T06:43:20;101006.75;;;14.81;88.81
20368;BME280;10343;52.402;9.796;2023-02-21T06:45:48;100997.06;;;14.78;89.08
20368;BME280;10343;52.402;9.796;2023-02-21T06:48:16;101006.38;;;14.92;88.51
20368;BME280;10343;52.402;9.796;2023-02-21T06:50:44;101007.31;;;14.91;86.37
20368;BME280;10343;52.402;9.796;2023-02-21T06:53:12;101015.06;;;15.22;85.45
20368;BME280;10343;52.402;9.796;2023-02-21T06:55:40;101018.84;;;14.66;88.52
20368;BME280;10343;52.402;9.796;2023-02-21T06:58:10;101027.06;;;15.34;85.75
20368;BME280;10343;52.402;9.796;2023-02-21T07:00:38;101026.69;;;14.96;86.20
20368;BME280;10343;52.402;9.796;2023-02-21T07:03:09;101020.25;;;14.76;87.92
20368;BME280;10343;52.402;9.796;2023-02-21T07:05:37;101021.50;;;15.17;85.95
20368;BME280;10343;52.402;9.796;2023-02-21T07:08:05;101025.16;;;14.89;87.15
20368;BME280;10343;52.402;9.796;2023-02-21T07:10:33;101035.25;;;15.29;84.62
20368;BME280;10343;52.402;9.796;2023-02-21T07:13:02;101032.25;;;14.90;86.39
20368;BME280;10343;52.402;9.796;2023-02-21T07:15:31;101052.97;;;15.08;85.54
20368;BME280;10343;52.402;9.796;2023-02-21T07:17:59;101045.72;;;14.87;85.48
20368;BME280;10343;52.402;9.796;2023-02-21T07:20:27;101047.25;;;15.18;85.37
20368;BME280;10343;52.402;9.796;2023-02-21T07:22:55;101051.59;;;15.45;83.22
20368;BME280;10343;52.402;9.796;2023-02-21T07:25:23;101051.84;;;14.89;86.01
20368;BME280;10343;52.402;9.796;2023-02-21T07:27:51;101065.28;;;15.13;83.44
20368;BME280;10343;52.402;9.796;2023-02-21T07:30:19;101058.03;;;15.40;83.13
20368;BME280;10343;52.402;9.796;2023-02-21T07:32:48;101064.13;;;15.43;81.75
20368;BME280;10343;52.402;9.796;2023-02-21T07:35:17;101069.47;;;15.43;82.71
20368;BME280;10343;52.402;9.796;2023-02-21T07:37:45;101063.72;;;15.78;80.92
20368;BME280;10343;52.402;9.796;2023-02-21T07:40:15;101071.09;;;15.48;82.25
20368;BME280;10343;52.402;9.796;2023-02-21T07:42:43;101073.31;;;15.36;82.95
20368;BME280;10343;52.402;9.796;2023-02-21T07:45:14;101077.06;;;15.07;84.80
20368;BME280;10343;52.402;9.796;2023-02-21T07:47:43;101069.03;;;15.07;83.65
20368;BME280;10343;52.402;9.796;2023-02-21T07:50:15;101070.53;;;14.62;87.02
20368;BME280;10343;52.402;9.796;2023-02-21T07:52:44;101077.44;;;14.96;86.36
20368;BME280;10343;52.402;9.796;2023-02-21T07:55:13;101074.75;;;14.96;86.02
20368;BME280;10343;52.402;9.796;2023-02-21T07:57:41;101078.56;;;15.14;85.72
20368;BME280;10343;52.402;9.796;2023-02-21T08:00:09;101084.22;;;15.05;84.09
20368;BME280;10343;52.402;9.796;2023-02-21T08:02:38;101073.22;;;14.89;87.22
20368;BME280;10343;52.402;9.796;2023-02-21T08:05:07;101080.63;;;15.31;84.06
20368;BME280;10343;52.402;9.796;2023-02-21T08:07:37;101091.22;;;15.09;84.36
20368;BME280;10343;52.402;9.796;2023-02-21T08:10:05;101092.66;;;15.43;83.27
20368;BME280;10343;52.402;9.796;2023-02-21T08:12:33;101098.84;;;15.20;84.17
20368;BME280;10343;52.402;9.796;2023-02-21T08:15:02;101097.28;;;15.38;82.98
20368;BME280;10343;52.402;9.796;2023-02-21T08:17:32;101106.78;;;15.21;82.97
20368;BME280;10343;52.402;9.796;2023-02-21T08:20:02;101108.31;;;15.54;81.57
20368;BME280;10343;52.402;9.796;2023-02-21T08:22:33;101110.91;;;15.30;83.15
20368;BME280;10343;52.402;9.796;2023-02-21T08:25:06;101105.38;;;15.11;84.39
20368;BME280;10343;52.402;9.796;2023-02-21T08:27:38;101103.53;;;15.62;81.33
20368;BME280;10343;52.402;9.796;2023-02-21T08:30:09;101110.97;;;15.77;81.07
20368;BME280;10343;52.402;9.796;2023-02-21T08:32:38;101109.69;;;15.64;80.47
20368;BME280;10343;52.402;9.796;2023-02-21T08:35:06;101118.47;;;15.68;80.16
20368;BME280;10343;52.402;9.796;2023-02-21T08:37:34;101115.28;;;15.58;81.68
20368;BME280;10343;52.402;9.796;2023-02-21T08:40:13;101124.22;;;15.57;81.57
20368;BME280;10343;52.402;9.796;2023-02-21T08:42:42;101127.03;;;16.01;78.65
20368;BME280;10343;52.402;9.796;2023-02-21T08:45:15;101129.84;;;15.98;77.13
20368;BME280;10343;52.402;9.796;2023-02-21T08:47:44;101118.09;;;15.77;79.67
20368;BME280;10343;52.402;9.796;2023-02-21T08:50:13;101127.34;;;16.16;77.77
20368;BME280;10343;52.402;9.796;2023-02-21T08:52:41;101133.94;;;15.59;79.35
20368;BME280;10343;52.402;9.796;2023-02-21T08:55:09;101127.44;;;15.90;78.48
20368;BME280;10343;52.402;9.796;2023-02-21T08:57:38;101127.34;;;15.44;80.68
20368;BME280;10343;52.402;9.796;2023-02-21T09:00:07;101134.19;;;15.75;79.49
20368;BME280;10343;52.402;9.796;2023-02-21T09:02:37;101125.84;;;14.85;86.49
20368;BME280;10343;52.402;9.796;2023-02-21T09:05:07;101125.56;;;15.20;84.31
20368;BME280;10343;52.402;9.796;2023-02-21T09:07:36;101122.09;;;15.90;80.03
20368;BME280;10343;52.402;9.796;2023-02-21T09:10:05;101135.09;;;15.76;78.59
20368;BME280;10343;52.402;9.796;2023-02-21T09:12:35;101125.13;;;16.27;76.86
20368;BME280;10343;52.402;9.796;2023-02-21T09:15:06;101124.00;;;16.10;76.39
20368;BME280;10343;52.402;9.796;2023-02-21T09:17:35;101115.97;;;15.87;77.95
20368;BME280;10343;52.402;9.796;2023-02-21T09:20:07;101112.47;;;15.37;80.38
20368;BME280;10343;52.402;9.796;2023-02-21T09:22:36;101129.31;;;15.88;79.73
20368;BME280;10343;52.402;9.796;2023-02-21T09:25:04;101109.69;;;15.64;80.04
20368;BME280;10343;52.402;9.796;2023-02-21T09:27:33;101112.19;;;15.69;79.28
20368;BME280;10343;52.402;9.796;2023-02-21T09:30:07;101119.59;;;15.86;78.50
20368;BME280;10343;52.402;9.796;2023-02-21T09:32:37;101106.81;;;15.94;78.80
20368;BME280;10343;52.402;9.796;2023-02-21T09:35:06;101113.44;;;16.29;76.28
20368;BME280;10343;52.402;9.796;2023-02-21T09:37:36;101110.94;;;16.25;76.78
20368;BME280;10343;52.402;9.796;2023-02-21T09:40:11;101111.94;;;16.44;73.72
20368;BME280;10343;52.402;9.796;2023-02-21T09:42:42;101110.94;;;16.47;74.28
20368;BME280;10343;52.402;9.796;2023-02-21T09:45:15;101121.06;;;16.61;73.86
20368;BME280;10343;52.402;9.796;2023-02-21T09:47:48;101120.38;;;16.11;76.25
20368;BME280;10343;52.402;9.796;2023-02-21T09:50:20;101118.78;;;16.52;73.84
20368;BME280;10343;52.402;9.796;2023-02-21T09:52:55;101118.38;;;16.61;74.23
20368;BME280;10343;52.402;9.796;2023-02-21T09:55:29;101119.72;;;15.83;77.23
20368;BME280;10343;52.402;9.796;2023-02-21T09:57:58;101119.63;;;16.96;72.62
20368;BME280;10343;52.402;9.796;2023-02-21T10:00:32;101123.75;;;16.39;72.93
20368;BME280;10343;52.402;9.796;2023-02-21T10:03:10;101126.50;;;17.23;71.92
20368;BME280;10343;52.402;9.796;2023-02-21T10:05:44;101124.63;;;16.61;72.82
20368;BME280;10343;52.402;9.796;2023-02-21T10:08:23;101122.22;;;16.98;71.92
20368;BME280;10343;52.402;9.796;2023-02-21T10:10:58;101127.63;;;16.54;72.53
20368;BME280;10343;52.402;9.796;2023-02-21T10:13:35;101125.88;;;16.53;73.50
20368;BME280;10343;52.402;9.796;2023-02-21T10:16:08;101129.13;;;16.81;72.37
20368;BME280;10343;52.402;9.796;2023-02-21T10:18:42;101128.41;;;16.11;76.37
20368;BME280;10343;52.402;9.796;2023-02-21T10:21:16;101137.31;;;16.12;75.20
20368;BME280;10343;52.402;9.796;2023-02-21T10:23:50;101130.38;;;16.30;74.76
20368;BME280;10343;52.402;9.796;2023-02-21T10:26:25;101136.56;;;16.53;74.24
20368;BME280;10343;52.402;9.796;2023-02-21T10:28:55;101128.13;;;16.41;74.45
20368;BME280;10343;52.402;9.796;2023-02-21T10:31:29;101124.94;;;16.09;75.58
20368;BME280;10343;52.402;9.796;2023-02-21T10:33:58;101132.47;;;16.66;72.81
20368;BME280;10343;52.402;9.796;2023-02-21T10:36:26;101124.22;;;16.71;71.90
20368;BME280;10343;52.402;9.796;2023-02-21T10:38:58;101128.97;;;16.20;73.41
20368;BME280;10343;52.402;9.796;2023-02-21T10:41:30;101130.38;;;16.30;74.57
20368;BME280;10343;52.402;9.796;2023-02-21T10:44:08;101130.38;;;16.30;73.67
20368;BME280;10343;52.402;9.796;2023-02-21T10:46:42;101144.66;;;16.73;72.42
20368;BME280;10343;52.402;9.796;2023-02-21T10:49:21;101143.97;;;16.24;73.53
20368;BME280;10343;52.402;9.796;2023-02-21T10:52:03;101138.59;;;16.47;72.57
20368;BME280;10343;52.402;9.796;2023-02-21T10:54:32;101145.91;;;16.20;74.35
20368;BME280;10343;52.402;9.796;2023-02-21T10:57:03;101145.19;;;16.81;72.64
20368;BME280;10343;52.402;9.796;2023-02-21T10:59:33;101149.91;;;16.76;72.81
20368;BME280;10343;52.402;9.796;2023-02-21T11:02:27;101151.63;;;16.77;71.51
20368;BME280;10343;52.402;9.796;2023-02-21T11:05:08;101143.31;;;16.63;72.59
20368;BME280;10343;52.402;9.796;2023-02-21T11:07:37;101148.06;;;16.10;75.64
20368;BME280;10343;52.402;9.796;2023-02-21T11:10:28;101153.13;;;16.40;73.96
20368;BME280;10343;52.402;9.796;2023-02-21T11:13:05;101158.78;;;16.10;75.46
20368;BME280;10343;52.402;9.796;2023-02-21T11:15:33;101152.88;;;16.24;73.77
20368;BME280;10343;52.402;9.796;2023-02-21T11:18:05;101152.03;;;16.46;73.26
20368;BME280;10343;52.402;9.796;2023-02-21T11:20:38;101151.06;;;16.47;73.13
20368;BME280;10343;52.402;9.796;2023-02-21T11:23:18;101154.84;;;16.86;71.63
20368;BME280;10343;52.402;9.796;2023-02-21T11:25:47;101168.81;;;16.94;71.42
20368;BME280;10343;52.402;9.796;2023-02-21T11:28:20;101153.03;;;16.43;72.77
20368;BME280;10343;52.402;9.796;2023-02-21T11:31:02;101162.94;;;16.84;71.15
20368;BME280;10343;52.402;9.796;2023-02-21T11:33:35;101158.31;;;16.67;71.82
20368;BME280;10343;52.402;9.796;2023-02-21T11:36:10;101166.81;;;16.77;71.79
20368;BME280;10343;52.402;9.796;2023-02-21T11:38:40;101162.91;;;16.63;72.39
20368;BME280;10343;52.402;9.796;2023-02-21T11:41:22;101157.47;;;16.65;72.03
20368;BME280;10343;52.402;9.796;2023-02-21T11:43:51;101157.25;;;16.93;70.90
20368;BME280;10343;52.402;9.796;2023-02-21T11:46:43;101152.63;;;17.18;68.94
20368;BME280;10343;52.402;9.796;2023-02-21T11:49:20;101152.38;;;17.44;67.43
20368;BME280;10343;52.402;9.796;2023-02-21T11:51:56;101145.56;;;17.37;67.36
20368;BME280;10343;52.402;9.796;2023-02-21T11:54:27;101142.59;;;17.23;68.05
20368;BME280;10343;52.402;9.796;2023-02-21T11:57:02;101142.28;;;17.70;65.87
20368;BME280;10343;52.402;9.796;2023-02-21T11:59:39;101147.69;;;17.29;67.84
20368;BME280;10343;52.402;9.796;2023-02-21T12:02:38;101135.00;;;17.53;67.03
20368;BME280;10343;52.402;9.796;2023-02-21T12:05:28;101133.72;;;17.62;65.83
20368;BME280;10343;52.402;9.796;2023-02-21T12:08:11;101130.63;;;17.51;66.95
20368;BME280;10343;52.402;9.796;2023-02-21T12:10:49;101142.09;;;17.54;65.82
20368;BME280;10343;52.402;9.796;2023-02-21T12:13:29;101138.56;;;17.54;65.74
20368;BME280;10343;52.402;9.796;2023-02-21T12:16:08;101146.47;;;16.73;68.20
20368;BME280;10343;52.402;9.796;2023-02-21T12:18:48;101137.63;;;17.94;64.94
20368;BME280;10343;52.402;9.796;2023-02-21T12:24:26;101144.84;;;17.53;65.18
20368;BME280;10343;52.402;9.796;2023-02-21T12:27:01;101132.75;;;18.22;63.22
20368;BME280;10343;52.402;9.796;2023-02-21T12:29:48;101126.19;;;18.46;60.58
20368;BME280;10343;52.402;9.796;2023-02-21T12:32:47;101129.41;;;17.78;63.90
20368;BME280;10343;52.402;9.796;2023-02-21T12:38:36;101121.28;;;18.18;61.34
20368;BME280;10343;52.402;9.796;2023-02-21T12:41:18;101121.88;;;18.25;62.10
20368;BME280;10343;52.402;9.796;2023-02-21T12:43:55;101130.38;;;18.15;62.83
20368;BME280;10343;52.402;9.796;2023-02-21T12:46:31;101118.94;;;19.03;59.09
20368;BME280;10343;52.402;9.796;2023-02-21T12:49:04;101123.63;;;18.80;59.19
20368;BME280;10343;52.402;9.796;2023-02-21T12:51:38;101108.41;;;18.80;58.53
20368;BME280;10343;52.402;9.796;2023-02-21T12:54:14;101116.34;;;19.01;58.18
20368;BME280;10343;52.402;9.796;2023-02-21T12:56:46;101114.59;;;19.00;57.91
20368;BME280;10343;52.402;9.796;2023-02-21T12:59:19;101119.88;;;18.47;59.69
20368;BME280;10343;52.402;9.796;2023-02-21T13:01:54;101113.56;;;19.54;56.78
20368;BME280;10343;52.402;9.796;2023-02-21T13:04:30;101113.78;;;19.33;57.28
20368;BME280;10343;52.402;9.796;2023-02-21T13:07:03;101116.91;;;19.59;56.03
20368;BME280;10343;52.402;9.796;2023-02-21T13:09:41;101121.31;;;19.09;57.81
20368;BME280;10343;52.402;9.796;2023-02-21T13:12:13;101120.44;;;19.26;57.60
20368;BME280;10343;52.402;9.796;2023-02-21T13:14:47;101116.31;;;19.18;57.41
20368;BME280;10343;52.402;9.796;2023-02-21T13:17:17;101117.34;;;19.67;55.99
20368;BME280;10343;52.402;9.796;2023-02-21T13:19:48;101115.56;;;19.32;55.83
20368;BME280;10343;52.402;9.796;2023-02-21T13:26:14;101128.19;;;18.60;58.49
20368;BME280;10343;52.402;9.796;2023-02-21T13:28:50;101119.19;;;18.25;60.11
20368;BME280;10343;52.402;9.796;2023-02-21T13:31:21;101119.84;;;17.92;61.15
20368;BME280;10343;52.402;9.796;2023-02-21T13:33:53;101119.25;;;17.66;62.48
20368;BME280;10343;52.402;9.796;2023-02-21T13:36:26;101103.75;;;17.92;61.43
20368;BME280;10343;52.402;9.796;2023-02-21T13:39:04;101116.63;;;17.04;64.88
20368;BME280;10343;52.402;9.796;2023-02-21T13:41:40;101111.50;;;17.39;64.43
20368;BME280;10343;52.402;9.796;2023-02-21T13:44:12;101109.63;;;17.41;63.40
20368;BME280;10343;52.402;9.796;2023-02-21T13:47:05;101103.81;;;17.90;62.20
20368;BME280;10343;52.402;9.796;2023-02-21T13:55:26;101097.94;;;18.39;60.85